Airfield :
LOGIN :

Register | Disclaimer

   EN    FR    IT 

 










Legend :    VFR   Marginal VFR   IFR   Intensive IFR   Very Intensive IFR
Visi :
Ceiling :
>= 8 km
>= 3000ft
5 to 8 km
1000 to 3000 ft
1500m to 5 km
500 to 1000 ft
800 to 1500m
200 to 500 ft
< 800m
< 200 ft
Symbols :   Thunderstorms  Fog  Heavy snow  Heavy precipitations  Wind > 20 kt
SIGMETs :     Misc.  Thunderstorms  Icing  Turbulence  Mountain Waves  Volcanic Ashes






- Airport Elevation : 510 ft


LJCE - Cerklje

CURRENT METAR :
  • 260200Z AUTO 35002KT 1500 R09/1000D BR NSC 07/06 Q0998

EXPIRED METARs :
  • 260130Z AUTO VRB02KT 8000 -SHRA BR OVC049/// 07/05 Q0999
  • 260100Z AUTO VRB01KT 9999 -SHRA BKN047/// BKN120/// 07/05 Q1000
  • 260030Z AUTO 00000KT 9999 FEW039/// BKN052/// BKN130/// 07/05 Q1000
  • 260000Z AUTO VRB02KT 9000 NSC 07/05 Q1000
  • 252330Z AUTO VRB03KT 9999 OVC047/// 06/05 Q1001

TAF TAF LJCE
Valid from the 26 at 00:00 until the 26 at 09:00 UTC


252300Z 2600/2609 24005KT 9999 SCT045 BKN080
TEMPO 2600/2609 -SHRA BKN035TCU OVC050
BECMG 2607/2609 08005KT BKN045



MET'MAP, your aeronautical weather chart ! - Copyright ORBIFLY December 2007 - Disclaimer

ORBIFLY MET'MAP TEAM :

Programming & Development : Alexandra Zaïnal
Concept & original design : Baudouin d'Aumeries
Assistance for programming : Marc-Olivier Méhu
Technical & hardware support : Manuel Goepfert

Contact : metmap@orbifly.com




SOURCES & CREDITS :

   NOAA